sensor_id;sensor_type;location;lat;lon;timestamp;temperature;humidity
15452;DHT22;7827;53.594;9.938;2023-07-20T00:01:53;15.60;92.60
15452;DHT22;7827;53.594;9.938;2023-07-20T00:04:22;15.70;92.90
15452;DHT22;7827;53.594;9.938;2023-07-20T00:06:50;15.70;88.70
15452;DHT22;7827;53.594;9.938;2023-07-20T00:09:18;15.70;76.80
15452;DHT22;7827;53.594;9.938;2023-07-20T00:11:49;15.80;76.90
15452;DHT22;7827;53.594;9.938;2023-07-20T00:14:19;15.80;72.00
15452;DHT22;7827;53.594;9.938;2023-07-20T00:16:51;15.80;50.20
15452;DHT22;7827;53.594;9.938;2023-07-20T00:19:24;15.70;74.60
15452;DHT22;7827;53.594;9.938;2023-07-20T00:21:53;15.80;68.30
15452;DHT22;7827;53.594;9.938;2023-07-20T00:24:21;15.80;72.40
15452;DHT22;7827;53.594;9.938;2023-07-20T00:26:50;15.80;65.20
15452;DHT22;7827;53.594;9.938;2023-07-20T00:29:18;15.80;68.80
15452;DHT22;7827;53.594;9.938;2023-07-20T00:31:47;15.80;48.30
15452;DHT22;7827;53.594;9.938;2023-07-20T00:34:19;15.80;52.50
15452;DHT22;7827;53.594;9.938;2023-07-20T00:36:47;15.80;57.80
15452;DHT22;7827;53.594;9.938;2023-07-20T00:39:16;15.80;53.50
15452;DHT22;7827;53.594;9.938;2023-07-20T00:41:45;15.80;57.70
15452;DHT22;7827;53.594;9.938;2023-07-20T00:44:13;15.90;56.80
15452;DHT22;7827;53.594;9.938;2023-07-20T00:46:42;16.00;28.80
15452;DHT22;7827;53.594;9.938;2023-07-20T00:49:11;15.90;42.00
15452;DHT22;7827;53.594;9.938;2023-07-20T00:51:41;15.80;87.30
15452;DHT22;7827;53.594;9.938;2023-07-20T00:54:09;15.80;94.50
15452;DHT22;7827;53.594;9.938;2023-07-20T00:56:39;15.80;94.40
15452;DHT22;7827;53.594;9.938;2023-07-20T00:59:07;15.80;91.90
15452;DHT22;7827;53.594;9.938;2023-07-20T01:01:35;15.80;99.80
15452;DHT22;7827;53.594;9.938;2023-07-20T01:04:05;15.70;99.90
15452;DHT22;7827;53.594;9.938;2023-07-20T01:06:39;15.70;99.90
15452;DHT22;7827;53.594;9.938;2023-07-20T01:09:19;15.70;99.90
15452;DHT22;7827;53.594;9.938;2023-07-20T01:11:56;15.60;99.90
15452;DHT22;7827;53.594;9.938;2023-07-20T01:14:32;15.60;99.90
15452;DHT22;7827;53.594;9.938;2023-07-20T01:17:02;15.50;99.90
15452;DHT22;7827;53.594;9.938;2023-07-20T01:19:31;15.60;99.90
15452;DHT22;7827;53.594;9.938;2023-07-20T01:22:06;15.50;99.90
15452;DHT22;7827;53.594;9.938;2023-07-20T01:24:49;15.60;99.90
15452;DHT22;7827;53.594;9.938;2023-07-20T01:27:57;15.60;99.90
15452;DHT22;7827;53.594;9.938;2023-07-20T01:30:56;15.50;99.90
15452;DHT22;7827;53.594;9.938;2023-07-20T01:33:32;15.40;99.90
15452;DHT22;7827;53.594;9.938;2023-07-20T01:36:02;15.40;99.90
15452;DHT22;7827;53.594;9.938;2023-07-20T01:38:32;15.30;99.90
15452;DHT22;7827;53.594;9.938;2023-07-20T01:41:01;15.30;99.90
15452;DHT22;7827;53.594;9.938;2023-07-20T01:43:30;15.30;99.90
15452;DHT22;7827;53.594;9.938;2023-07-20T01:45:59;15.30;99.90
15452;DHT22;7827;53.594;9.938;2023-07-20T01:48:27;15.30;99.90
15452;DHT22;7827;53.594;9.938;2023-07-20T01:50:57;15.30;99.90
15452;DHT22;7827;53.594;9.938;2023-07-20T01:53:25;15.40;99.90
15452;DHT22;7827;53.594;9.938;2023-07-20T01:55:54;15.40;99.90
15452;DHT22;7827;53.594;9.938;2023-07-20T01:58:22;15.50;99.90
15452;DHT22;7827;53.594;9.938;2023-07-20T02:00:51;15.50;99.90
15452;DHT22;7827;53.594;9.938;2023-07-20T02:03:20;15.50;99.90
15452;DHT22;7827;53.594;9.938;2023-07-20T02:05:50;15.40;99.90
15452;DHT22;7827;53.594;9.938;2023-07-20T02:08:20;15.40;99.90
15452;DHT22;7827;53.594;9.938;2023-07-20T02:10:49;15.40;99.90
15452;DHT22;7827;53.594;9.938;2023-07-20T02:13:19;15.50;99.90
15452;DHT22;7827;53.594;9.938;2023-07-20T02:15:47;15.50;99.90
15452;DHT22;7827;53.594;9.938;2023-07-20T02:18:17;15.50;99.90
15452;DHT22;7827;53.594;9.938;2023-07-20T02:20:46;15.50;99.90
15452;DHT22;7827;53.594;9.938;2023-07-20T02:23:14;15.50;99.90
15452;DHT22;7827;53.594;9.938;2023-07-20T02:25:44;15.50;99.90
15452;DHT22;7827;53.594;9.938;2023-07-20T02:28:13;15.50;99.90
15452;DHT22;7827;53.594;9.938;2023-07-20T02:30:43;15.50;99.90
15452;DHT22;7827;53.594;9.938;2023-07-20T02:33:11;15.40;99.90
15452;DHT22;7827;53.594;9.938;2023-07-20T02:35:40;15.50;99.90
15452;DHT22;7827;53.594;9.938;2023-07-20T02:38:09;15.40;99.90
15452;DHT22;7827;53.594;9.938;2023-07-20T02:40:37;15.40;99.90
15452;DHT22;7827;53.594;9.938;2023-07-20T02:43:07;15.50;99.90
15452;DHT22;7827;53.594;9.938;2023-07-20T02:45:40;15.50;99.90
15452;DHT22;7827;53.594;9.938;2023-07-20T02:48:09;15.50;99.90
15452;DHT22;7827;53.594;9.938;2023-07-20T02:50:38;15.40;99.90
15452;DHT22;7827;53.594;9.938;2023-07-20T02:53:06;15.40;99.90
15452;DHT22;7827;53.594;9.938;2023-07-20T02:55:34;15.30;99.90
15452;DHT22;7827;53.594;9.938;2023-07-20T02:58:03;15.30;99.90
15452;DHT22;7827;53.594;9.938;2023-07-20T03:00:32;15.30;99.90
15452;DHT22;7827;53.594;9.938;2023-07-20T03:03:01;15.30;99.90
15452;DHT22;7827;53.594;9.938;2023-07-20T03:05:29;15.30;99.90
15452;DHT22;7827;53.594;9.938;2023-07-20T03:07:58;15.30;99.90
15452;DHT22;7827;53.594;9.938;2023-07-20T03:10:29;15.30;99.90
15452;DHT22;7827;53.594;9.938;2023-07-20T03:12:58;15.20;99.90
15452;DHT22;7827;53.594;9.938;2023-07-20T03:15:26;15.20;99.90
15452;DHT22;7827;53.594;9.938;2023-07-20T03:17:58;15.30;99.90
15452;DHT22;7827;53.594;9.938;2023-07-20T03:20:28;15.30;99.90
15452;DHT22;7827;53.594;9.938;2023-07-20T03:22:56;15.30;99.90
15452;DHT22;7827;53.594;9.938;2023-07-20T03:25:25;15.30;99.90
15452;DHT22;7827;53.594;9.938;2023-07-20T03:27:55;15.10;99.90
15452;DHT22;7827;53.594;9.938;2023-07-20T03:30:23;15.10;99.90
15452;DHT22;7827;53.594;9.938;2023-07-20T03:32:52;15.10;99.90
15452;DHT22;7827;53.594;9.938;2023-07-20T03:35:22;15.10;99.90
15452;DHT22;7827;53.594;9.938;2023-07-20T03:37:50;15.20;99.90
15452;DHT22;7827;53.594;9.938;2023-07-20T03:40:19;15.10;99.90
15452;DHT22;7827;53.594;9.938;2023-07-20T03:42:47;15.20;99.90
15452;DHT22;7827;53.594;9.938;2023-07-20T03:45:15;15.20;99.90
15452;DHT22;7827;53.594;9.938;2023-07-20T03:47:44;15.20;99.90
15452;DHT22;7827;53.594;9.938;2023-07-20T03:50:15;15.10;99.90
15452;DHT22;7827;53.594;9.938;2023-07-20T03:52:45;15.10;99.90
15452;DHT22;7827;53.594;9.938;2023-07-20T03:55:13;15.10;99.90
15452;DHT22;7827;53.594;9.938;2023-07-20T03:57:42;15.20;99.90
15452;DHT22;7827;53.594;9.938;2023-07-20T04:00:12;15.20;99.90
15452;DHT22;7827;53.594;9.938;2023-07-20T04:02:41;15.10;99.90
15452;DHT22;7827;53.594;9.938;2023-07-20T04:05:10;15.10;99.90
15452;DHT22;7827;53.594;9.938;2023-07-20T04:07:38;15.20;99.90
15452;DHT22;7827;53.594;9.938;2023-07-20T04:10:09;15.20;99.90
15452;DHT22;7827;53.594;9.938;2023-07-20T04:12:37;15.30;99.90
15452;DHT22;7827;53.594;9.938;2023-07-20T04:15:07;15.30;99.90
15452;DHT22;7827;53.594;9.938;2023-07-20T04:17:36;15.30;99.90
15452;DHT22;7827;53.594;9.938;2023-07-20T04:20:05;15.30;99.90
15452;DHT22;7827;53.594;9.938;2023-07-20T04:22:35;15.40;99.90
15452;DHT22;7827;53.594;9.938;2023-07-20T04:25:08;15.30;99.90
15452;DHT22;7827;53.594;9.938;2023-07-20T04:27:36;15.40;99.90
15452;DHT22;7827;53.594;9.938;2023-07-20T04:30:07;15.60;99.90
15452;DHT22;7827;53.594;9.938;2023-07-20T04:32:37;15.90;99.90
15452;DHT22;7827;53.594;9.938;2023-07-20T04:35:45;16.30;99.90
15452;DHT22;7827;53.594;9.938;2023-07-20T04:38:19;16.50;99.90
15452;DHT22;7827;53.594;9.938;2023-07-20T04:40:57;16.80;99.90
15452;DHT22;7827;53.594;9.938;2023-07-20T04:43:26;17.10;99.90
15452;DHT22;7827;53.594;9.938;2023-07-20T04:45:57;17.40;85.80
15452;DHT22;7827;53.594;9.938;2023-07-20T04:48:26;17.50;99.90
15452;DHT22;7827;53.594;9.938;2023-07-20T04:50:55;17.60;28.90
15452;DHT22;7827;53.594;9.938;2023-07-20T04:53:24;17.60;1.00
15452;DHT22;7827;53.594;9.938;2023-07-20T04:55:53;17.50;42.90
15452;DHT22;7827;53.594;9.938;2023-07-20T04:58:25;17.60;89.20
15452;DHT22;7827;53.594;9.938;2023-07-20T05:00:54;17.80;88.20
15452;DHT22;7827;53.594;9.938;2023-07-20T05:03:23;17.90;17.90
15452;DHT22;7827;53.594;9.938;2023-07-20T05:05:52;18.00;1.00
15452;DHT22;7827;53.594;9.938;2023-07-20T05:08:21;18.00;1.00
15452;DHT22;7827;53.594;9.938;2023-07-20T05:10:50;18.30;1.00
15452;DHT22;7827;53.594;9.938;2023-07-20T05:13:19;18.20;1.00
15452;DHT22;7827;53.594;9.938;2023-07-20T05:15:52;18.20;1.00
15452;DHT22;7827;53.594;9.938;2023-07-20T05:18:22;18.30;1.00
15452;DHT22;7827;53.594;9.938;2023-07-20T05:20:51;18.40;1.00
15452;DHT22;7827;53.594;9.938;2023-07-20T05:23:21;18.30;1.00
15452;DHT22;7827;53.594;9.938;2023-07-20T05:25:54;18.20;1.00
15452;DHT22;7827;53.594;9.938;2023-07-20T05:28:23;18.00;1.00
15452;DHT22;7827;53.594;9.938;2023-07-20T05:30:53;17.90;1.00
15452;DHT22;7827;53.594;9.938;2023-07-20T05:33:22;18.00;1.00
15452;DHT22;7827;53.594;9.938;2023-07-20T05:35:50;18.10;2.60
15452;DHT22;7827;53.594;9.938;2023-07-20T05:38:19;18.10;1.00
15452;DHT22;7827;53.594;9.938;2023-07-20T05:40:47;18.20;1.00
15452;DHT22;7827;53.594;9.938;2023-07-20T05:43:15;18.20;1.00
15452;DHT22;7827;53.594;9.938;2023-07-20T05:45:44;18.20;1.00
15452;DHT22;7827;53.594;9.938;2023-07-20T05:48:16;18.30;1.00
15452;DHT22;7827;53.594;9.938;2023-07-20T05:50:44;18.30;1.00
15452;DHT22;7827;53.594;9.938;2023-07-20T05:53:12;18.30;1.00
15452;DHT22;7827;53.594;9.938;2023-07-20T05:55:41;18.20;1.00
15452;DHT22;7827;53.594;9.938;2023-07-20T05:58:09;18.10;1.00
15452;DHT22;7827;53.594;9.938;2023-07-20T06:00:37;18.10;1.00
15452;DHT22;7827;53.594;9.938;2023-07-20T06:03:06;18.20;1.00
15452;DHT22;7827;53.594;9.938;2023-07-20T06:05:36;18.00;1.00
15452;DHT22;7827;53.594;9.938;2023-07-20T06:08:05;17.90;1.00
15452;DHT22;7827;53.594;9.938;2023-07-20T06:10:33;17.60;1.00
15452;DHT22;7827;53.594;9.938;2023-07-20T06:13:02;17.70;1.00
15452;DHT22;7827;53.594;9.938;2023-07-20T06:15:32;17.60;1.00
15452;DHT22;7827;53.594;9.938;2023-07-20T06:18:02;17.70;1.00
15452;DHT22;7827;53.594;9.938;2023-07-20T06:20:31;17.50;1.00
15452;DHT22;7827;53.594;9.938;2023-07-20T06:23:00;17.50;1.00
15452;DHT22;7827;53.594;9.938;2023-07-20T06:25:29;17.60;1.00
15452;DHT22;7827;53.594;9.938;2023-07-20T06:27:57;17.80;1.00
15452;DHT22;7827;53.594;9.938;2023-07-20T06:30:26;17.90;1.00
15452;DHT22;7827;53.594;9.938;2023-07-20T06:32:54;17.90;1.00
15452;DHT22;7827;53.594;9.938;2023-07-20T06:35:22;18.00;1.00
15452;DHT22;7827;53.594;9.938;2023-07-20T06:37:51;18.10;1.00
15452;DHT22;7827;53.594;9.938;2023-07-20T06:40:21;18.10;99.90
15452;DHT22;7827;53.594;9.938;2023-07-20T06:42:52;18.10;1.00
15452;DHT22;7827;53.594;9.938;2023-07-20T06:45:24;18.00;99.90
15452;DHT22;7827;53.594;9.938;2023-07-20T06:47:52;18.10;1.00
15452;DHT22;7827;53.594;9.938;2023-07-20T06:50:21;18.20;99.90
15452;DHT22;7827;53.594;9.938;2023-07-20T06:52:54;18.10;1.00
15452;DHT22;7827;53.594;9.938;2023-07-20T06:55:26;18.30;99.90
15452;DHT22;7827;53.594;9.938;2023-07-20T06:57:55;18.40;1.00
15452;DHT22;7827;53.594;9.938;2023-07-20T07:00:25;18.30;36.80
15452;DHT22;7827;53.594;9.938;2023-07-20T07:02:54;18.40;1.00
15452;DHT22;7827;53.594;9.938;2023-07-20T07:05:22;18.50;1.00
15452;DHT22;7827;53.594;9.938;2023-07-20T07:07:51;18.70;99.90
15452;DHT22;7827;53.594;9.938;2023-07-20T07:10:19;18.80;1.00
15452;DHT22;7827;53.594;9.938;2023-07-20T07:12:49;18.70;1.00
15452;DHT22;7827;53.594;9.938;2023-07-20T07:15:17;18.70;1.00
15452;DHT22;7827;53.594;9.938;2023-07-20T07:17:46;18.70;1.00
15452;DHT22;7827;53.594;9.938;2023-07-20T07:20:15;18.70;1.00
15452;DHT22;7827;53.594;9.938;2023-07-20T07:22:50;18.70;1.00
15452;DHT22;7827;53.594;9.938;2023-07-20T07:25:19;18.90;99.90
15452;DHT22;7827;53.594;9.938;2023-07-20T07:30:20;18.90;1.00
15452;DHT22;7827;53.594;9.938;2023-07-20T07:32:49;19.00;1.00
15452;DHT22;7827;53.594;9.938;2023-07-20T07:35:18;18.70;1.00
15452;DHT22;7827;53.594;9.938;2023-07-20T07:37:46;18.50;1.00
15452;DHT22;7827;53.594;9.938;2023-07-20T07:40:17;18.20;7.50
15452;DHT22;7827;53.594;9.938;2023-07-20T07:42:46;18.10;97.10
15452;DHT22;7827;53.594;9.938;2023-07-20T07:45:15;18.00;1.00
15452;DHT22;7827;53.594;9.938;2023-07-20T07:47:44;18.10;90.90
15452;DHT22;7827;53.594;9.938;2023-07-20T07:50:12;18.20;16.00
15452;DHT22;7827;53.594;9.938;2023-07-20T07:52:41;18.40;1.00
15452;DHT22;7827;53.594;9.938;2023-07-20T07:55:09;18.80;99.90
15452;DHT22;7827;53.594;9.938;2023-07-20T07:57:37;18.70;99.90
15452;DHT22;7827;53.594;9.938;2023-07-20T08:00:07;18.60;1.00
15452;DHT22;7827;53.594;9.938;2023-07-20T08:02:41;18.60;1.00
15452;DHT22;7827;53.594;9.938;2023-07-20T08:05:10;18.70;99.90
15452;DHT22;7827;53.594;9.938;2023-07-20T08:07:38;18.50;1.00
15452;DHT22;7827;53.594;9.938;2023-07-20T08:10:07;18.50;99.90
15452;DHT22;7827;53.594;9.938;2023-07-20T08:12:37;18.70;99.90
15452;DHT22;7827;53.594;9.938;2023-07-20T08:15:06;18.90;99.90
15452;DHT22;7827;53.594;9.938;2023-07-20T08:17:35;19.10;1.00
15452;DHT22;7827;53.594;9.938;2023-07-20T08:20:06;19.20;99.90
15452;DHT22;7827;53.594;9.938;2023-07-20T08:22:38;19.20;99.90
15452;DHT22;7827;53.594;9.938;2023-07-20T08:25:07;19.10;1.00
15452;DHT22;7827;53.594;9.938;2023-07-20T08:27:36;19.00;99.90
15452;DHT22;7827;53.594;9.938;2023-07-20T08:30:06;18.90;1.00
15452;DHT22;7827;53.594;9.938;2023-07-20T08:32:35;19.00;1.00
15452;DHT22;7827;53.594;9.938;2023-07-20T08:35:06;19.10;1.00
15452;DHT22;7827;53.594;9.938;2023-07-20T08:37:35;19.20;99.90
15452;DHT22;7827;53.594;9.938;2023-07-20T08:40:04;19.60;99.90
15452;DHT22;7827;53.594;9.938;2023-07-20T08:42:37;19.70;1.00
15452;DHT22;7827;53.594;9.938;2023-07-20T08:45:08;19.50;1.00
15452;DHT22;7827;53.594;9.938;2023-07-20T08:47:38;19.00;1.00
15452;DHT22;7827;53.594;9.938;2023-07-20T08:50:08;18.50;99.90
15452;DHT22;7827;53.594;9.938;2023-07-20T08:52:37;18.10;99.90
15452;DHT22;7827;53.594;9.938;2023-07-20T08:55:07;17.70;99.90
15452;DHT22;7827;53.594;9.938;2023-07-20T08:57:36;17.60;1.00
15452;DHT22;7827;53.594;9.938;2023-07-20T09:00:10;17.80;1.00
15452;DHT22;7827;53.594;9.938;2023-07-20T09:02:40;18.10;1.00
15452;DHT22;7827;53.594;9.938;2023-07-20T09:05:12;18.20;1.00
15452;DHT22;7827;53.594;9.938;2023-07-20T09:07:41;18.50;1.00
15452;DHT22;7827;53.594;9.938;2023-07-20T09:10:10;18.80;1.00
15452;DHT22;7827;53.594;9.938;2023-07-20T09:12:42;18.90;1.00
15452;DHT22;7827;53.594;9.938;2023-07-20T09:15:11;18.90;1.00
15452;DHT22;7827;53.594;9.938;2023-07-20T09:17:45;19.00;99.90
15452;DHT22;7827;53.594;9.938;2023-07-20T09:20:17;19.10;99.90
15452;DHT22;7827;53.594;9.938;2023-07-20T09:22:50;19.10;1.00
15452;DHT22;7827;53.594;9.938;2023-07-20T09:25:22;18.70;1.00
15452;DHT22;7827;53.594;9.938;2023-07-20T09:27:55;18.10;1.00
15452;DHT22;7827;53.594;9.938;2023-07-20T09:30:26;17.70;99.90
15452;DHT22;7827;53.594;9.938;2023-07-20T09:32:57;17.60;1.00
15452;DHT22;7827;53.594;9.938;2023-07-20T09:35:28;17.40;1.00
15452;DHT22;7827;53.594;9.938;2023-07-20T09:38:08;17.20;1.00
15452;DHT22;7827;53.594;9.938;2023-07-20T09:40:40;17.10;1.00
15452;DHT22;7827;53.594;9.938;2023-07-20T09:43:12;17.10;1.00
15452;DHT22;7827;53.594;9.938;2023-07-20T09:45:47;17.10;1.00
15452;DHT22;7827;53.594;9.938;2023-07-20T09:48:18;17.10;99.90
15452;DHT22;7827;53.594;9.938;2023-07-20T09:50:57;17.20;99.90
15452;DHT22;7827;53.594;9.938;2023-07-20T09:53:26;17.20;1.00
15452;DHT22;7827;53.594;9.938;2023-07-20T09:55:57;17.40;1.00
15452;DHT22;7827;53.594;9.938;2023-07-20T09:58:40;17.60;1.00
15452;DHT22;7827;53.594;9.938;2023-07-20T10:01:11;17.90;99.90
15452;DHT22;7827;53.594;9.938;2023-07-20T10:03:45;18.00;1.00
15452;DHT22;7827;53.594;9.938;2023-07-20T10:06:20;18.20;1.00
15452;DHT22;7827;53.594;9.938;2023-07-20T10:08:53;18.40;99.90
15452;DHT22;7827;53.594;9.938;2023-07-20T10:11:24;18.50;1.00
15452;DHT22;7827;53.594;9.938;2023-07-20T10:13:59;18.70;99.90
15452;DHT22;7827;53.594;9.938;2023-07-20T10:16:35;18.90;1.00
15452;DHT22;7827;53.594;9.938;2023-07-20T10:19:10;19.00;99.90
15452;DHT22;7827;53.594;9.938;2023-07-20T10:21:48;19.10;1.00
15452;DHT22;7827;53.594;9.938;2023-07-20T10:24:25;19.30;99.90
15452;DHT22;7827;53.594;9.938;2023-07-20T10:26:55;19.30;1.00
15452;DHT22;7827;53.594;9.938;2023-07-20T10:29:24;19.30;99.90
15452;DHT22;7827;53.594;9.938;2023-07-20T10:31:56;19.50;1.00
15452;DHT22;7827;53.594;9.938;2023-07-20T10:34:30;19.40;99.90
15452;DHT22;7827;53.594;9.938;2023-07-20T10:37:06;19.40;13.30
15452;DHT22;7827;53.594;9.938;2023-07-20T10:39:35;19.60;1.00
15452;DHT22;7827;53.594;9.938;2023-07-20T10:42:07;19.70;99.90
15452;DHT22;7827;53.594;9.938;2023-07-20T10:44:37;19.60;1.00
15452;DHT22;7827;53.594;9.938;2023-07-20T10:47:09;19.90;1.00
15452;DHT22;7827;53.594;9.938;2023-07-20T10:49:57;20.00;1.00
15452;DHT22;7827;53.594;9.938;2023-07-20T10:52:38;19.60;38.80
15452;DHT22;7827;53.594;9.938;2023-07-20T10:55:11;19.40;1.00
15452;DHT22;7827;53.594;9.938;2023-07-20T10:57:42;19.20;1.00
15452;DHT22;7827;53.594;9.938;2023-07-20T11:00:13;19.10;1.00
15452;DHT22;7827;53.594;9.938;2023-07-20T11:02:46;19.30;99.90
15452;DHT22;7827;53.594;9.938;2023-07-20T11:05:35;19.50;99.90
15452;DHT22;7827;53.594;9.938;2023-07-20T11:08:11;19.80;99.90
15452;DHT22;7827;53.594;9.938;2023-07-20T11:10:40;19.50;1.00
15452;DHT22;7827;53.594;9.938;2023-07-20T11:13:19;19.40;1.00
15452;DHT22;7827;53.594;9.938;2023-07-20T11:16:04;19.10;99.90
15452;DHT22;7827;53.594;9.938;2023-07-20T11:18:34;18.80;1.00
15452;DHT22;7827;53.594;9.938;2023-07-20T11:21:08;18.80;1.00
15452;DHT22;7827;53.594;9.938;2023-07-20T11:23:40;19.00;80.80
15452;DHT22;7827;53.594;9.938;2023-07-20T11:26:09;19.30;99.90
15452;DHT22;7827;53.594;9.938;2023-07-20T11:28:39;19.10;99.90
15452;DHT22;7827;53.594;9.938;2023-07-20T11:31:07;19.00;99.90
15452;DHT22;7827;53.594;9.938;2023-07-20T11:33:36;19.10;99.90
15452;DHT22;7827;53.594;9.938;2023-07-20T11:36:06;19.30;1.00
15452;DHT22;7827;53.594;9.938;2023-07-20T11:38:41;19.20;1.00
15452;DHT22;7827;53.594;9.938;2023-07-20T11:41:11;19.20;99.90
15452;DHT22;7827;53.594;9.938;2023-07-20T11:43:41;19.30;1.00
15452;DHT22;7827;53.594;9.938;2023-07-20T11:46:09;19.30;1.00
15452;DHT22;7827;53.594;9.938;2023-07-20T11:48:38;19.30;1.00
15452;DHT22;7827;53.594;9.938;2023-07-20T11:51:13;19.20;99.90
15452;DHT22;7827;53.594;9.938;2023-07-20T11:53:44;19.10;1.00
15452;DHT22;7827;53.594;9.938;2023-07-20T11:56:14;18.90;1.00
15452;DHT22;7827;53.594;9.938;2023-07-20T11:58:44;19.10;99.90
15452;DHT22;7827;53.594;9.938;2023-07-20T12:01:13;19.20;1.00
15452;DHT22;7827;53.594;9.938;2023-07-20T12:03:42;19.40;99.90
15452;DHT22;7827;53.594;9.938;2023-07-20T12:06:11;19.60;1.00
15452;DHT22;7827;53.594;9.938;2023-07-20T12:08:43;19.70;1.00
15452;DHT22;7827;53.594;9.938;2023-07-20T12:11:12;19.70;99.90
15452;DHT22;7827;53.594;9.938;2023-07-20T12:13:43;19.60;1.00
15452;DHT22;7827;53.594;9.938;2023-07-20T12:16:13;19.70;84.70
15452;DHT22;7827;53.594;9.938;2023-07-20T12:18:44;19.70;1.00
15452;DHT22;7827;53.594;9.938;2023-07-20T12:21:12;19.80;1.00
15452;DHT22;7827;53.594;9.938;2023-07-20T12:23:41;19.90;99.90
15452;DHT22;7827;53.594;9.938;2023-07-20T12:26:14;19.80;1.00
15452;DHT22;7827;53.594;9.938;2023-07-20T12:28:43;19.60;51.30
15452;DHT22;7827;53.594;9.938;2023-07-20T12:31:12;19.40;99.90
15452;DHT22;7827;53.594;9.938;2023-07-20T12:33:41;19.30;92.60
15452;DHT22;7827;53.594;9.938;2023-07-20T12:36:10;19.30;1.00
15452;DHT22;7827;53.594;9.938;2023-07-20T12:38:38;19.20;1.00
15452;DHT22;7827;53.594;9.938;2023-07-20T12:41:11;19.20;91.80
15452;DHT22;7827;53.594;9.938;2023-07-20T12:43:41;19.20;99.90
15452;DHT22;7827;53.594;9.938;2023-07-20T12:46:11;19.20;1.00
15452;DHT22;7827;53.594;9.938;2023-07-20T12:48:41;19.20;99.90
15452;DHT22;7827;53.594;9.938;2023-07-20T12:51:14;19.30;77.10
15452;DHT22;7827;53.594;9.938;2023-07-20T12:53:42;19.50;99.90
15452;DHT22;7827;53.594;9.938;2023-07-20T12:56:12;19.60;99.90
15452;DHT22;7827;53.594;9.938;2023-07-20T12:58:43;19.60;1.00
15452;DHT22;7827;53.594;9.938;2023-07-20T13:01:11;19.70;99.90
15452;DHT22;7827;53.594;9.938;2023-07-20T13:03:40;20.00;99.90
15452;DHT22;7827;53.594;9.938;2023-07-20T13:06:11;20.20;99.90
15452;DHT22;7827;53.594;9.938;2023-07-20T13:08:42;20.30;99.90
15452;DHT22;7827;53.594;9.938;2023-07-20T13:11:12;20.60;1.00
15452;DHT22;7827;53.594;9.938;2023-07-20T13:13:40;20.70;23.50
15452;DHT22;7827;53.594;9.938;2023-07-20T13:16:09;20.80;1.00
15452;DHT22;7827;53.594;9.938;2023-07-20T13:18:37;20.90;8.10
15452;DHT22;7827;53.594;9.938;2023-07-20T13:21:05;20.90;99.90
15452;DHT22;7827;53.594;9.938;2023-07-20T13:23:39;20.60;1.00
15452;DHT22;7827;53.594;9.938;2023-07-20T13:26:08;20.60;1.00
15452;DHT22;7827;53.594;9.938;2023-07-20T13:28:37;20.50;1.00
15452;DHT22;7827;53.594;9.938;2023-07-20T13:31:06;20.50;1.00
15452;DHT22;7827;53.594;9.938;2023-07-20T13:33:38;20.40;1.00
15452;DHT22;7827;53.594;9.938;2023-07-20T13:36:06;20.40;99.90
15452;DHT22;7827;53.594;9.938;2023-07-20T13:38:36;20.50;18.50
15452;DHT22;7827;53.594;9.938;2023-07-20T13:41:04;20.30;99.90
15452;DHT22;7827;53.594;9.938;2023-07-20T13:43:32;20.20;99.90
15452;DHT22;7827;53.594;9.938;2023-07-20T13:46:02;20.10;99.90
15452;DHT22;7827;53.594;9.938;2023-07-20T13:48:31;20.10;99.90
15452;DHT22;7827;53.594;9.938;2023-07-20T13:51:03;19.90;1.00
15452;DHT22;7827;53.594;9.938;2023-07-20T13:53:31;20.10;1.00
15452;DHT22;7827;53.594;9.938;2023-07-20T13:56:03;20.20;1.00
15452;DHT22;7827;53.594;9.938;2023-07-20T13:58:34;20.20;99.90
15452;DHT22;7827;53.594;9.938;2023-07-20T14:01:08;20.40;99.90
15452;DHT22;7827;53.594;9.938;2023-07-20T14:03:36;20.60;99.90
15452;DHT22;7827;53.594;9.938;2023-07-20T14:06:05;20.80;99.90
15452;DHT22;7827;53.594;9.938;2023-07-20T14:08:37;20.90;1.00
15452;DHT22;7827;53.594;9.938;2023-07-20T14:11:05;21.10;1.00
15452;DHT22;7827;53.594;9.938;2023-07-20T14:13:36;21.20;1.00
15452;DHT22;7827;53.594;9.938;2023-07-20T14:16:14;21.30;1.00
15452;DHT22;7827;53.594;9.938;2023-07-20T14:18:43;21.30;1.00
15452;DHT22;7827;53.594;9.938;2023-07-20T14:21:16;21.50;1.00
15452;DHT22;7827;53.594;9.938;2023-07-20T14:23:46;21.40;1.00
15452;DHT22;7827;53.594;9.938;2023-07-20T14:26:15;21.40;1.00
15452;DHT22;7827;53.594;9.938;2023-07-20T14:28:44;21.40;1.00
15452;DHT22;7827;53.594;9.938;2023-07-20T14:31:13;21.30;1.00
15452;DHT22;7827;53.594;9.938;2023-07-20T14:33:42;21.10;1.00
15452;DHT22;7827;53.594;9.938;2023-07-20T14:36:12;21.00;1.00
15452;DHT22;7827;53.594;9.938;2023-07-20T14:38:40;20.90;1.00
15452;DHT22;7827;53.594;9.938;2023-07-20T14:41:09;20.90;1.00
15452;DHT22;7827;53.594;9.938;2023-07-20T14:43:39;20.90;99.90
15452;DHT22;7827;53.594;9.938;2023-07-20T14:46:07;21.00;1.00
15452;DHT22;7827;53.594;9.938;2023-07-20T14:48:37;21.20;1.00
15452;DHT22;7827;53.594;9.938;2023-07-20T14:51:05;21.40;1.00
15452;DHT22;7827;53.594;9.938;2023-07-20T14:53:34;21.40;1.00
15452;DHT22;7827;53.594;9.938;2023-07-20T14:56:03;21.40;1.00
15452;DHT22;7827;53.594;9.938;2023-07-20T14:58:32;21.50;1.00
15452;DHT22;7827;53.594;9.938;2023-07-20T15:01:02;21.70;1.00
15452;DHT22;7827;53.594;9.938;2023-07-20T15:03:31;21.80;1.00
15452;DHT22;7827;53.594;9.938;2023-07-20T15:06:01;21.80;1.00
15452;DHT22;7827;53.594;9.938;2023-07-20T15:08:30;21.30;1.00
15452;DHT22;7827;53.594;9.938;2023-07-20T15:10:59;21.00;1.00
15452;DHT22;7827;53.594;9.938;2023-07-20T15:13:29;20.70;40.30
15452;DHT22;7827;53.594;9.938;2023-07-20T15:15:57;20.60;99.90
15452;DHT22;7827;53.594;9.938;2023-07-20T15:18:26;20.40;97.80
15452;DHT22;7827;53.594;9.938;2023-07-20T15:21:15;20.20;99.90
15452;DHT22;7827;53.594;9.938;2023-07-20T15:23:44;20.00;99.90
15452;DHT22;7827;53.594;9.938;2023-07-20T15:26:12;20.20;99.90
15452;DHT22;7827;53.594;9.938;2023-07-20T15:28:41;20.40;1.00
15452;DHT22;7827;53.594;9.938;2023-07-20T15:31:10;20.50;1.00
15452;DHT22;7827;53.594;9.938;2023-07-20T15:33:38;20.60;1.00
15452;DHT22;7827;53.594;9.938;2023-07-20T15:36:07;20.60;1.00
15452;DHT22;7827;53.594;9.938;2023-07-20T15:38:36;20.70;1.00
15452;DHT22;7827;53.594;9.938;2023-07-20T15:41:07;20.80;1.00
15452;DHT22;7827;53.594;9.938;2023-07-20T15:43:36;21.10;1.00
15452;DHT22;7827;53.594;9.938;2023-07-20T15:46:43;21.20;1.00
15452;DHT22;7827;53.594;9.938;2023-07-20T15:49:15;21.50;1.00
15452;DHT22;7827;53.594;9.938;2023-07-20T15:51:44;21.50;1.00
15452;DHT22;7827;53.594;9.938;2023-07-20T15:54:15;21.50;99.90
15452;DHT22;7827;53.594;9.938;2023-07-20T15:56:44;21.50;99.90
15452;DHT22;7827;53.594;9.938;2023-07-20T15:59:13;21.30;99.90
15452;DHT22;7827;53.594;9.938;2023-07-20T16:01:43;21.20;1.00
15452;DHT22;7827;53.594;9.938;2023-07-20T16:04:13;21.20;1.00
15452;DHT22;7827;53.594;9.938;2023-07-20T16:06:42;21.30;1.00
15452;DHT22;7827;53.594;9.938;2023-07-20T16:09:11;21.30;1.00
15452;DHT22;7827;53.594;9.938;2023-07-20T16:11:42;21.50;1.00
15452;DHT22;7827;53.594;9.938;2023-07-20T16:14:11;21.50;1.00
15452;DHT22;7827;53.594;9.938;2023-07-20T16:16:42;21.50;1.00